Time;durP1;ratioP1;P1;durP2;ratioP2;P2;SDS_P1;SDS_P2;PMS_P1;PMS_P2;Temp;Humidity;BMP_temperature;BMP_pressure;BME280_temperature;BME280_humidity;BME280_pressure;Samples;Min_cycle;Max_cycle;Signal;HPM_P1;HPM_P2
2023/04/22 00:01:12;;;;;;;22.60;14.80;;;8.60;99.90;;;;;;5071722;28;20392;-74
2023/04/22 00:03:40;;;;;;;25.37;15.83;;;8.70;99.90;;;;;;5073705;28;20379;-75
2023/04/22 00:06:06;;;;;;;25.63;16.90;;;9.00;99.90;;;;;;5074069;28;20493;-75
2023/04/22 00:08:32;;;;;;;27.30;16.30;;;9.00;99.90;;;;;;5073246;28;20437;-75
2023/04/22 00:10:57;;;;;;;23.93;16.10;;;9.30;99.90;;;;;;5071135;28;20395;-75
2023/04/22 00:13:23;;;;;;;22.70;14.47;;;9.40;99.90;;;;;;5072331;28;20464;-75
2023/04/22 00:15:48;;;;;;;21.97;14.33;;;9.30;99.90;;;;;;5074162;28;20384;-74
2023/04/22 00:18:15;;;;;;;21.92;14.85;;;9.20;99.90;;;;;;5078710;28;20438;-74
2023/04/22 00:20:44;;;;;;;26.33;16.00;;;9.10;99.90;;;;;;5092520;28;20376;-75
2023/04/22 00:23:10;;;;;;;24.17;16.03;;;9.20;99.90;;;;;;5094693;28;20461;-75
2023/04/22 00:25:36;;;;;;;23.80;15.40;;;9.10;99.90;;;;;;5092689;28;20380;-75
2023/04/22 00:28:01;;;;;;;24.42;16.02;;;9.10;99.90;;;;;;5078112;28;20442;-74
2023/04/22 00:30:27;;;;;;;24.88;15.90;;;9.10;99.90;;;;;;5074114;28;20380;-76
2023/04/22 00:32:52;;;;;;;27.02;15.77;;;9.10;99.90;;;;;;5075866;28;20388;-75
2023/04/22 00:35:18;;;;;;;27.58;16.85;;;9.00;99.90;;;;;;5072476;28;20418;-73
2023/04/22 00:37:44;;;;;;;26.70;17.30;;;9.00;99.90;;;;;;5072203;28;20403;-75
2023/04/22 00:40:10;;;;;;;30.35;17.25;;;9.30;99.90;;;;;;5073033;28;20752;-75
2023/04/22 00:42:36;;;;;;;26.02;16.58;;;9.30;99.90;;;;;;5074401;28;20463;-76
2023/04/22 00:45:02;;;;;;;27.67;18.30;;;9.20;99.90;;;;;;5083296;28;20459;-74
2023/04/22 00:47:28;;;;;;;27.50;17.15;;;9.20;99.90;;;;;;5085730;28;20398;-74
2023/04/22 00:49:54;;;;;;;26.27;16.88;;;9.20;99.90;;;;;;5086178;28;20448;-74
2023/04/22 00:52:20;;;;;;;29.40;17.70;;;9.20;99.90;;;;;;5086427;28;20405;-74
2023/04/22 00:54:45;;;;;;;28.35;19.60;;;9.20;99.90;;;;;;5080977;28;20388;-75
2023/04/22 00:57:11;;;;;;;30.58;18.63;;;9.30;99.90;;;;;;5071772;28;20386;-75
2023/04/22 00:59:37;;;;;;;30.50;18.30;;;9.30;99.90;;;;;;5071788;28;20404;-75
2023/04/22 01:02:03;;;;;;;27.38;18.17;;;9.40;99.90;;;;;;5070558;28;20384;-75
2023/04/22 01:04:29;;;;;;;31.65;19.88;;;9.40;99.90;;;;;;5069823;28;20929;-75
2023/04/22 01:06:54;;;;;;;30.10;18.90;;;9.40;99.90;;;;;;5071561;28;20380;-75
2023/04/22 01:09:20;;;;;;;28.73;18.45;;;9.40;99.90;;;;;;5071250;28;20809;-75
2023/04/22 01:11:46;;;;;;;24.90;16.42;;;9.30;99.90;;;;;;5070415;28;20881;-75
2023/04/22 01:14:12;;;;;;;23.97;16.40;;;9.30;99.90;;;;;;5071113;28;20387;-75
2023/04/22 01:16:39;;;;;;;22.67;14.45;;;9.30;99.90;;;;;;5070228;28;20395;-75
2023/04/22 01:19:07;;;;;;;21.40;14.10;;;9.40;99.90;;;;;;5071756;28;20810;-75
2023/04/22 01:21:34;;;;;;;20.77;14.30;;;9.40;99.90;;;;;;5072197;28;20384;-75
2023/04/22 01:24:00;;;;;;;23.30;14.40;;;9.40;99.90;;;;;;5074014;28;20457;-76
2023/04/22 01:26:26;;;;;;;22.73;14.82;;;9.50;99.90;;;;;;5071662;28;20452;-75
2023/04/22 01:28:52;;;;;;;21.63;15.10;;;9.50;99.90;;;;;;5070956;28;20612;-75
2023/04/22 01:31:18;;;;;;;17.97;12.70;;;9.70;99.90;;;;;;5070612;28;20390;-75
2023/04/22 01:33:44;;;;;;;19.23;12.25;;;9.80;99.90;;;;;;5071835;28;20912;-75
2023/04/22 01:36:11;;;;;;;20.77;13.30;;;9.80;99.90;;;;;;5071042;28;20402;-75
2023/04/22 01:38:36;;;;;;;20.35;13.60;;;9.80;99.90;;;;;;5070923;28;20799;-74
2023/04/22 01:41:02;;;;;;;17.57;11.93;;;9.80;99.90;;;;;;5073093;28;20387;-75
2023/04/22 01:43:32;;;;;;;14.47;10.37;;;9.80;99.90;;;;;;5074769;28;20822;-75
2023/04/22 01:45:59;;;;;;;13.35;9.73;;;9.70;99.90;;;;;;5075220;28;20383;-74
2023/04/22 01:48:26;;;;;;;17.45;10.10;;;9.70;99.90;;;;;;5074569;28;20391;-73
2023/04/22 01:50:52;;;;;;;14.77;10.13;;;9.70;99.90;;;;;;5074613;28;20433;-75
2023/04/22 01:53:17;;;;;;;12.73;9.30;;;9.70;99.90;;;;;;5074679;28;20873;-75
2023/04/22 01:55:43;;;;;;;12.77;9.47;;;9.70;99.90;;;;;;5074608;28;20464;-75
2023/04/22 01:58:08;;;;;;;12.77;9.02;;;9.70;99.90;;;;;;5074356;28;20765;-76
2023/04/22 02:00:34;;;;;;;9.70;8.07;;;9.80;99.90;;;;;;5074675;28;20481;-75
2023/04/22 02:02:59;;;;;;;10.80;7.70;;;9.90;99.90;;;;;;5074634;28;20740;-75
2023/04/22 02:05:26;;;;;;;11.27;7.63;;;9.90;99.90;;;;;;5073379;28;20877;-73
2023/04/22 02:07:53;;;;;;;10.48;7.97;;;10.00;99.90;;;;;;5076937;28;20399;-75
2023/04/22 02:10:19;;;;;;;10.18;7.50;;;10.10;99.90;;;;;;5091825;28;20384;-75
2023/04/22 02:12:44;;;;;;;8.77;6.78;;;10.10;99.90;;;;;;5092908;28;20416;-74
2023/04/22 02:15:11;;;;;;;9.45;7.20;;;10.10;99.90;;;;;;5095089;28;20387;-75
2023/04/22 02:17:37;;;;;;;9.93;7.70;;;10.10;99.90;;;;;;5095541;28;20427;-75
2023/04/22 02:20:04;;;;;;;9.10;7.28;;;10.10;99.90;;;;;;5093734;28;20384;-74
2023/04/22 02:22:30;;;;;;;9.18;7.40;;;10.10;99.90;;;;;;5095165;28;20380;-75
2023/04/22 02:24:56;;;;;;;9.32;6.80;;;10.10;99.90;;;;;;5081076;28;20483;-76
2023/04/22 02:27:22;;;;;;;8.50;6.40;;;10.10;99.90;;;;;;5074552;28;20408;-75
2023/04/22 02:29:47;;;;;;;12.50;7.40;;;10.00;99.90;;;;;;5074475;28;20437;-75
2023/04/22 02:32:15;;;;;;;7.67;6.53;;;10.00;99.90;;;;;;5074203;28;20392;-75
2023/04/22 02:34:41;;;;;;;9.82;7.20;;;10.10;99.90;;;;;;5073642;28;20384;-75
2023/04/22 02:37:07;;;;;;;9.60;7.10;;;10.10;99.90;;;;;;5073763;28;20392;-75
2023/04/22 02:39:32;;;;;;;7.20;5.80;;;10.10;99.90;;;;;;5074205;28;20461;-75
2023/04/22 02:41:58;;;;;;;9.33;6.63;;;10.10;99.90;;;;;;5073955;28;20384;-75
2023/04/22 02:44:23;;;;;;;9.60;6.90;;;10.20;99.90;;;;;;5073678;28;20872;-75
2023/04/22 02:46:49;;;;;;;8.40;6.50;;;10.20;99.90;;;;;;5073710;28;20467;-75
2023/04/22 02:49:15;;;;;;;9.57;6.50;;;10.20;99.90;;;;;;5073559;28;20863;-75
2023/04/22 02:51:40;;;;;;;8.70;6.60;;;10.20;99.90;;;;;;5072955;28;20422;-76
2023/04/22 02:54:06;;;;;;;7.70;6.40;;;10.30;99.90;;;;;;5083058;28;20383;-76
2023/04/22 02:56:31;;;;;;;9.48;6.70;;;10.30;99.90;;;;;;5092200;28;20686;-74
2023/04/22 02:58:57;;;;;;;7.85;6.50;;;10.30;99.90;;;;;;5076653;28;20412;-75
2023/04/22 03:01:22;;;;;;;8.43;6.20;;;10.30;99.90;;;;;;5076697;28;20384;-76
2023/04/22 03:03:48;;;;;;;9.03;6.33;;;10.30;99.90;;;;;;5094142;28;20482;-75
2023/04/22 03:06:14;;;;;;;9.03;6.47;;;10.40;99.90;;;;;;5092834;28;20418;-73
2023/04/22 03:08:39;;;;;;;7.70;6.30;;;10.40;99.60;;;;;;5096013;28;20367;-75
2023/04/22 03:11:08;;;;;;;8.97;7.47;;;10.40;98.80;;;;;;5092936;28;20411;-75
2023/04/22 03:13:34;;;;;;;8.77;6.60;;;10.40;98.20;;;;;;5088300;28;20417;-75
2023/04/22 03:15:59;;;;;;;8.30;6.10;;;10.70;94.50;;;;;;5086857;28;20384;-75
2023/04/22 03:18:25;;;;;;;8.50;6.05;;;10.70;92.30;;;;;;5089821;28;20414;-76
2023/04/22 03:20:50;;;;;;;9.00;6.30;;;10.70;92.80;;;;;;5090302;28;20391;-75
2023/04/22 03:23:16;;;;;;;7.82;6.30;;;10.60;93.80;;;;;;5089602;28;20414;-75
2023/04/22 03:25:41;;;;;;;6.60;5.87;;;10.70;92.20;;;;;;5088075;28;20390;-75
2023/04/22 03:28:07;;;;;;;7.93;6.17;;;10.70;92.20;;;;;;5089796;28;20438;-74
2023/04/22 03:30:32;;;;;;;8.80;6.30;;;10.70;91.60;;;;;;5086569;28;20475;-75
2023/04/22 03:32:58;;;;;;;9.40;6.30;;;10.70;91.90;;;;;;5085995;28;20383;-74
2023/04/22 03:35:24;;;;;;;8.60;5.70;;;10.70;92.60;;;;;;5085057;28;20400;-75
2023/04/22 03:37:49;;;;;;;5.80;5.30;;;10.80;91.20;;;;;;5085363;28;20396;-75
2023/04/22 03:40:15;;;;;;;9.20;6.35;;;10.70;91.40;;;;;;5080296;28;20387;-76
2023/04/22 03:42:40;;;;;;;7.95;6.20;;;10.80;91.10;;;;;;5071730;28;20376;-75
2023/04/22 03:45:06;;;;;;;9.83;6.43;;;10.80;89.80;;;;;;5072110;28;20421;-75
2023/04/22 03:47:32;;;;;;;7.22;5.88;;;10.80;90.00;;;;;;5071952;28;20416;-75
2023/04/22 03:49:57;;;;;;;5.73;5.13;;;10.80;89.30;;;;;;5072129;28;20962;-75
2023/04/22 03:52:23;;;;;;;8.93;6.30;;;11.00;86.50;;;;;;5070568;28;20419;-76
2023/04/22 03:54:49;;;;;;;7.20;6.17;;;10.90;86.90;;;;;;5072026;28;20380;-77
2023/04/22 03:57:14;;;;;;;8.30;5.60;;;10.90;87.10;;;;;;5071775;28;20380;-76
2023/04/22 03:59:40;;;;;;;7.95;6.07;;;10.90;87.90;;;;;;5071907;28;20400;-75
2023/04/22 04:02:06;;;;;;;10.07;5.65;;;10.90;87.90;;;;;;5071393;28;20412;-75
2023/04/22 04:04:33;;;;;;;7.47;5.72;;;10.90;86.90;;;;;;5071086;28;20376;-76
2023/04/22 04:06:59;;;;;;;8.57;5.55;;;10.90;88.20;;;;;;5071477;28;20398;-76
2023/04/22 04:09:25;;;;;;;10.40;6.03;;;10.80;89.10;;;;;;5071385;28;20445;-76
2023/04/22 04:11:51;;;;;;;7.95;5.65;;;10.90;89.30;;;;;;5071182;28;20392;-76
2023/04/22 04:14:16;;;;;;;6.43;5.57;;;10.90;88.60;;;;;;5072440;28;20399;-76
2023/04/22 04:16:42;;;;;;;7.23;6.03;;;10.90;87.50;;;;;;5078827;28;20488;-75
2023/04/22 04:19:08;;;;;;;7.70;5.32;;;10.90;88.90;;;;;;5090127;28;20423;-76
2023/04/22 04:21:34;;;;;;;8.03;5.93;;;10.80;89.50;;;;;;5080817;28;20387;-76
2023/04/22 04:23:59;;;;;;;8.13;6.10;;;10.80;90.90;;;;;;5071252;28;20375;-75
2023/04/22 04:26:26;;;;;;;10.70;6.10;;;10.80;89.70;;;;;;5071399;28;20890;-75
2023/04/22 04:28:52;;;;;;;7.55;5.88;;;10.80;89.90;;;;;;5071282;28;20876;-76
2023/04/22 04:31:18;;;;;;;7.97;5.30;;;10.90;87.90;;;;;;5069147;28;20395;-75
2023/04/22 04:33:45;;;;;;;7.80;6.30;;;11.00;86.90;;;;;;5071178;28;20429;-76
2023/04/22 04:36:11;;;;;;;5.55;4.93;;;11.00;86.60;;;;;;5071041;28;20398;-76
2023/04/22 04:38:36;;;;;;;7.77;5.97;;;11.10;84.80;;;;;;5071069;28;20923;-75
2023/04/22 04:41:02;;;;;;;7.78;5.15;;;11.20;83.40;;;;;;5070470;28;20411;-76
2023/04/22 04:43:28;;;;;;;6.93;5.00;;;11.20;82.20;;;;;;5071275;28;20424;-75
2023/04/22 04:45:54;;;;;;;6.00;5.40;;;11.30;81.10;;;;;;5071234;28;20860;-76
2023/04/22 04:48:19;;;;;;;7.80;5.20;;;11.20;81.30;;;;;;5071104;28;20437;-77
2023/04/22 04:50:45;;;;;;;7.13;5.60;;;11.30;80.20;;;;;;5070790;28;20465;-76
2023/04/22 04:53:12;;;;;;;7.13;5.18;;;11.30;80.50;;;;;;5070392;28;20565;-77
2023/04/22 04:55:38;;;;;;;8.05;5.50;;;11.30;80.70;;;;;;5070886;28;20387;-76
2023/04/22 04:58:04;;;;;;;7.47;5.38;;;11.40;79.50;;;;;;5070975;28;20446;-76
2023/04/22 05:00:29;;;;;;;8.60;5.90;;;11.40;78.70;;;;;;5070730;28;20384;-76
2023/04/22 05:02:55;;;;;;;7.53;5.00;;;11.40;78.50;;;;;;5070428;28;20379;-76
2023/04/22 05:05:21;;;;;;;8.70;5.10;;;11.50;77.80;;;;;;5071136;28;20445;-76
2023/04/22 05:07:46;;;;;;;7.47;5.10;;;11.60;76.20;;;;;;5071567;28;20872;-77
2023/04/22 05:10:12;;;;;;;6.73;5.50;;;11.60;75.70;;;;;;5071488;28;20971;-75
2023/04/22 05:12:38;;;;;;;7.40;5.30;;;11.60;75.10;;;;;;5070298;28;20394;-77
2023/04/22 05:15:04;;;;;;;6.10;4.60;;;11.70;75.20;;;;;;5073628;28;20414;-76
2023/04/22 05:17:30;;;;;;;11.82;5.20;;;11.70;74.60;;;;;;5075390;28;20951;-76
2023/04/22 05:19:56;;;;;;;6.20;5.27;;;11.80;74.20;;;;;;5075632;28;20945;-76
2023/04/22 05:22:21;;;;;;;8.13;5.20;;;11.80;74.00;;;;;;5075033;28;20394;-76
2023/04/22 05:24:47;;;;;;;6.03;4.77;;;11.90;74.00;;;;;;5074925;28;20434;-76
2023/04/22 05:27:12;;;;;;;7.40;4.97;;;12.00;71.30;;;;;;5077590;28;20388;-77
2023/04/22 05:29:38;;;;;;;6.60;4.30;;;12.10;70.00;;;;;;5082982;28;20816;-77
2023/04/22 05:32:05;;;;;;;5.88;4.65;;;12.20;69.30;;;;;;5083967;28;20388;-76
2023/04/22 05:34:31;;;;;;;6.25;4.90;;;12.30;67.80;;;;;;5082275;28;20388;-77
2023/04/22 05:36:56;;;;;;;7.78;4.82;;;12.40;65.50;;;;;;5074931;28;20379;-76
2023/04/22 05:39:22;;;;;;;10.73;5.00;;;12.50;65.60;;;;;;5074323;28;20399;-76
2023/04/22 05:41:48;;;;;;;5.55;4.38;;;12.50;64.90;;;;;;5073687;28;20387;-76
2023/04/22 05:44:13;;;;;;;4.82;3.90;;;12.60;63.70;;;;;;5074317;28;20414;-76
2023/04/22 05:46:39;;;;;;;4.30;3.90;;;12.60;64.10;;;;;;5074613;28;20902;-77
2023/04/22 05:49:04;;;;;;;6.00;4.50;;;12.70;62.60;;;;;;5075905;28;20818;-75
2023/04/22 05:51:31;;;;;;;5.53;4.20;;;12.70;62.90;;;;;;5073563;28;20406;-75
2023/04/22 05:53:57;;;;;;;4.50;4.10;;;12.80;61.40;;;;;;5074138;28;20963;-76
2023/04/22 05:56:22;;;;;;;5.57;4.23;;;12.90;59.20;;;;;;5074519;28;20391;-76
2023/04/22 05:58:48;;;;;;;5.17;3.80;;;12.90;59.30;;;;;;5074371;28;20865;-76
2023/04/22 06:01:13;;;;;;;5.38;4.18;;;13.00;58.60;;;;;;5073507;28;20478;-76
2023/04/22 06:03:39;;;;;;;5.68;4.50;;;13.10;57.80;;;;;;5074419;28;20736;-76
2023/04/22 06:06:05;;;;;;;6.07;4.33;;;13.20;57.60;;;;;;5074263;28;20379;-76
2023/04/22 06:08:31;;;;;;;6.05;4.38;;;13.20;57.60;;;;;;5073959;28;20388;-76
2023/04/22 06:10:57;;;;;;;7.07;4.82;;;13.10;57.90;;;;;;5073099;28;20869;-76
2023/04/22 06:13:22;;;;;;;5.43;4.50;;;13.20;57.70;;;;;;5073455;28;20902;-76
2023/04/22 06:15:48;;;;;;;4.97;3.80;;;13.10;58.20;;;;;;5074343;28;20388;-76
2023/04/22 06:18:13;;;;;;;6.68;4.80;;;13.10;58.30;;;;;;5074613;28;20410;-76
2023/04/22 06:20:39;;;;;;;4.93;3.90;;;13.10;59.00;;;;;;5074653;28;20471;-76
2023/04/22 06:23:05;;;;;;;7.03;4.53;;;13.00;59.60;;;;;;5079278;28;20379;-76
2023/04/22 06:25:31;;;;;;;7.97;4.80;;;13.00;59.30;;;;;;5087458;28;20394;-76
2023/04/22 06:27:58;;;;;;;7.13;4.80;;;13.00;59.20;;;;;;5087000;28;20392;-76
2023/04/22 06:30:24;;;;;;;5.93;4.20;;;13.00;60.20;;;;;;5088494;28;20392;-76
2023/04/22 06:32:51;;;;;;;6.15;4.30;;;13.00;60.10;;;;;;5078675;28;20406;-76
2023/04/22 06:35:17;;;;;;;7.97;4.97;;;13.00;59.00;;;;;;5076884;28;20450;-76
2023/04/22 06:37:43;;;;;;;6.50;4.70;;;13.10;60.30;;;;;;5073789;28;20815;-77
2023/04/22 06:40:09;;;;;;;5.00;4.32;;;13.30;58.80;;;;;;5074569;28;20795;-78
2023/04/22 06:42:35;;;;;;;6.28;4.50;;;13.30;57.80;;;;;;5072642;28;20388;-76
2023/04/22 06:45:01;;;;;;;6.03;4.60;;;13.40;56.50;;;;;;5073331;28;20411;-76
2023/04/22 06:47:27;;;;;;;4.90;4.40;;;13.50;55.20;;;;;;5086288;28;20398;-76
2023/04/22 06:49:52;;;;;;;6.75;4.38;;;13.70;54.30;;;;;;5098831;28;20421;-75
2023/04/22 06:52:18;;;;;;;5.70;4.28;;;13.80;52.70;;;;;;5084659;28;20391;-76
2023/04/22 06:54:44;;;;;;;9.23;5.03;;;14.00;51.60;;;;;;5086317;28;20383;-77
2023/04/22 06:57:10;;;;;;;8.38;5.18;;;14.00;50.80;;;;;;5080879;28;20415;-76
2023/04/22 06:59:35;;;;;;;5.10;4.00;;;14.20;49.40;;;;;;5058504;28;20464;-76
2023/04/22 07:02:01;;;;;;;3.83;3.27;;;14.20;49.10;;;;;;5059268;28;20773;-76
2023/04/22 07:04:28;;;;;;;4.60;4.05;;;14.30;47.80;;;;;;5073848;28;20455;-76
2023/04/22 07:06:54;;;;;;;8.10;4.80;;;14.30;47.30;;;;;;5075800;28;20388;-77
2023/04/22 07:09:19;;;;;;;5.10;4.00;;;14.40;48.90;;;;;;5076426;28;21088;-76
2023/04/22 07:11:45;;;;;;;5.43;3.50;;;14.50;46.40;;;;;;5078779;28;20423;-76
2023/04/22 07:14:10;;;;;;;4.10;3.57;;;14.70;44.50;;;;;;5067420;28;20989;-77
2023/04/22 07:16:37;;;;;;;5.00;3.53;;;14.90;43.10;;;;;;5054426;28;20381;-77
2023/04/22 07:19:04;;;;;;;5.38;3.25;;;15.10;40.70;;;;;;5074241;28;20481;-77
2023/04/22 07:21:31;;;;;;;6.00;3.60;;;15.10;41.10;;;;;;5071940;28;20392;-77
2023/04/22 07:23:57;;;;;;;4.40;3.60;;;15.00;39.80;;;;;;5071172;28;20438;-77
2023/04/22 07:26:23;;;;;;;3.58;3.28;;;15.00;41.00;;;;;;5074497;28;20435;-78
2023/04/22 07:28:49;;;;;;;4.53;3.80;;;15.00;40.30;;;;;;5074718;28;20429;-77
2023/04/22 07:31:14;;;;;;;7.53;3.60;;;15.10;39.30;;;;;;5072890;28;20807;-76
2023/04/22 07:33:40;;;;;;;8.70;3.57;;;15.20;38.90;;;;;;5074551;28;20479;-77
2023/04/22 07:36:06;;;;;;;7.05;3.63;;;15.40;38.80;;;;;;5072413;28;20525;-78
2023/04/22 07:38:31;;;;;;;6.13;3.42;;;15.50;37.20;;;;;;5073817;28;20388;-78
2023/04/22 07:40:57;;;;;;;4.85;3.60;;;15.70;36.20;;;;;;5072249;28;20400;-77
2023/04/22 07:43:22;;;;;;;5.00;3.37;;;15.80;35.00;;;;;;5072059;28;20392;-78
2023/04/22 07:45:48;;;;;;;4.17;3.30;;;15.90;33.70;;;;;;5071030;28;20422;-77
2023/04/22 07:48:14;;;;;;;5.50;3.42;;;16.10;34.30;;;;;;5071718;28;20396;-78
2023/04/22 07:50:39;;;;;;;7.18;3.45;;;16.20;34.00;;;;;;5073292;28;20444;-78
2023/04/22 07:53:05;;;;;;;5.70;3.40;;;16.30;33.00;;;;;;5078846;28;20387;-77
2023/04/22 07:55:31;;;;;;;5.50;3.40;;;16.20;31.80;;;;;;5081860;28;20388;-78
2023/04/22 07:57:58;;;;;;;7.33;3.80;;;16.30;32.40;;;;;;5092263;28;20804;-77
2023/04/22 08:00:24;;;;;;;13.00;3.78;;;16.40;30.90;;;;;;5101400;28;20382;-77
2023/04/22 08:02:50;;;;;;;4.68;3.72;;;16.50;30.80;;;;;;5081788;28;20399;-77
2023/04/22 08:05:15;;;;;;;6.50;3.92;;;16.60;30.30;;;;;;5078567;28;20437;-76
2023/04/22 08:07:41;;;;;;;5.90;3.30;;;16.90;29.40;;;;;;5076447;28;20387;-76
2023/04/22 08:10:07;;;;;;;7.33;4.10;;;16.90;28.40;;;;;;5074005;28;20388;-77
2023/04/22 08:12:33;;;;;;;7.53;3.72;;;17.00;27.60;;;;;;5080100;28;20383;-77
2023/04/22 08:14:59;;;;;;;8.40;3.92;;;17.10;27.20;;;;;;5105875;28;20398;-77
2023/04/22 08:17:24;;;;;;;9.10;4.00;;;17.20;25.90;;;;;;5102176;28;20468;-78
2023/04/22 08:19:50;;;;;;;4.97;3.53;;;17.20;25.90;;;;;;5095931;28;20406;-78
2023/04/22 08:22:17;;;;;;;6.30;3.53;;;17.30;25.60;;;;;;5095098;28;20385;-78
2023/04/22 08:24:43;;;;;;;7.95;3.40;;;17.40;25.70;;;;;;5095133;28;20871;-77
2023/04/22 08:27:08;;;;;;;7.80;4.50;;;17.60;25.00;;;;;;5093260;28;20401;-77
2023/04/22 08:29:34;;;;;;;11.95;3.75;;;17.70;24.50;;;;;;5094246;28;20474;-81
2023/04/22 08:32:00;;;;;;;5.60;3.40;;;17.90;24.20;;;;;;5069858;28;20396;-78
2023/04/22 08:34:26;;;;;;;9.70;4.80;;;17.90;23.40;;;;;;5073832;28;20467;-78
2023/04/22 08:36:52;;;;;;;8.13;3.75;;;18.00;22.90;;;;;;5074022;28;20494;-79
2023/04/22 08:39:17;;;;;;;6.18;3.80;;;18.10;22.00;;;;;;5075760;28;20895;-78
2023/04/22 08:41:43;;;;;;;7.10;4.10;;;18.20;22.10;;;;;;5072446;28;20411;-78
2023/04/22 08:44:10;;;;;;;6.15;3.65;;;18.40;21.80;;;;;;5072060;28;20884;-77
2023/04/22 08:46:36;;;;;;;5.30;3.20;;;18.50;21.60;;;;;;5070810;28;20403;-76
2023/04/22 08:49:03;;;;;;;4.25;3.28;;;18.60;20.80;;;;;;5071587;28;20876;-77
2023/04/22 08:51:32;;;;;;;5.90;3.80;;;18.50;20.70;;;;;;5071042;28;20764;-75
2023/04/22 08:53:58;;;;;;;7.90;3.90;;;18.50;21.30;;;;;;5072053;28;20388;-77
2023/04/22 08:56:24;;;;;;;4.93;3.40;;;18.40;21.50;;;;;;5072185;28;20887;-79
2023/04/22 08:58:51;;;;;;;5.50;3.47;;;18.50;21.20;;;;;;5073153;28;20745;-77
2023/04/22 09:01:20;;;;;;;5.35;4.05;;;18.60;21.00;;;;;;5071553;28;20491;-76
2023/04/22 09:03:48;;;;;;;7.90;3.97;;;18.60;21.10;;;;;;5072683;28;20383;-77
2023/04/22 09:06:15;;;;;;;6.13;4.20;;;18.70;22.20;;;;;;5072222;28;20380;-76
2023/04/22 09:08:42;;;;;;;6.40;3.80;;;18.80;20.90;;;;;;5073540;28;20422;-77
2023/04/22 09:13:41;;;;;;;5.63;4.00;;;18.70;19.80;;;;;;5052809;28;20417;-74
2023/04/22 09:16:07;;;;;;;8.18;4.18;;;18.70;21.10;;;;;;5055809;28;20845;-75
2023/04/22 09:18:44;;;;;;;6.47;3.50;;;18.90;20.10;;;;;;5050934;28;20401;-74
2023/04/22 09:21:10;;;;;;;6.72;3.40;;;19.00;19.60;;;;;;5050199;28;20386;-73
2023/04/22 09:23:51;;;;;;;6.00;3.45;;;19.30;19.80;;;;;;5051140;28;20388;-72
2023/04/22 09:26:24;;;;;;;11.50;3.42;;;19.40;18.50;;;;;;5051719;28;20443;-74
2023/04/22 09:28:57;;;;;;;6.90;3.90;;;19.30;18.60;;;;;;5051450;28;20738;-73
2023/04/22 09:31:24;;;;;;;7.80;3.92;;;19.30;19.00;;;;;;5032994;28;20427;-74
2023/04/22 09:33:57;;;;;;;6.90;4.10;;;19.50;18.70;;;;;;5053464;28;20789;-73
2023/04/22 09:36:32;;;;;;;8.13;3.70;;;19.40;18.40;;;;;;5054055;28;20470;-73
2023/04/22 09:39:00;;;;;;;8.50;4.22;;;19.60;18.50;;;;;;5056640;28;20400;-74
2023/04/22 09:41:31;;;;;;;6.80;3.70;;;19.80;18.10;;;;;;5055878;28;20400;-74
2023/04/22 09:43:59;;;;;;;5.20;3.80;;;19.90;18.10;;;;;;5038252;28;20433;-72
2023/04/22 09:46:26;;;;;;;5.95;3.78;;;20.20;17.50;;;;;;5038417;28;20397;-73
2023/04/22 09:48:55;;;;;;;7.60;4.00;;;20.30;17.40;;;;;;5054503;28;20886;-73
2023/04/22 09:51:21;;;;;;;4.22;3.83;;;20.50;17.20;;;;;;5055415;28;20386;-72
2023/04/22 09:53:58;;;;;;;10.05;4.10;;;20.70;16.40;;;;;;5035657;28;20397;-73
2023/04/22 09:56:43;;;;;;;7.72;4.90;;;21.00;16.30;;;;;;5050127;28;20397;-73
2023/04/22 09:59:09;;;;;;;5.38;4.15;;;20.90;16.00;;;;;;5044781;28;20416;-73
2023/04/22 10:01:39;;;;;;;4.00;3.10;;;21.00;15.60;;;;;;5037325;28;20407;-73
2023/04/22 10:04:10;;;;;;;6.80;4.40;;;21.40;15.40;;;;;;5052240;28;20393;-75
2023/04/22 10:06:36;;;;;;;7.53;4.18;;;21.40;15.70;;;;;;5024703;28;20391;-72
2023/04/22 10:09:03;;;;;;;6.20;4.40;;;21.70;15.00;;;;;;5032602;28;20395;-72
2023/04/22 10:11:31;;;;;;;6.10;3.72;;;21.70;14.90;;;;;;5031241;28;20402;-73
2023/04/22 10:13:57;;;;;;;8.05;4.00;;;21.70;14.90;;;;;;5039892;28;20396;-74
2023/04/22 10:16:24;;;;;;;6.75;3.80;;;21.80;14.70;;;;;;5056266;28;20389;-73
2023/04/22 10:18:53;;;;;;;5.20;3.40;;;21.50;14.90;;;;;;5040596;28;20419;-73
2023/04/22 10:21:20;;;;;;;5.45;3.50;;;21.40;15.30;;;;;;5027435;28;20391;-74
2023/04/22 10:23:47;;;;;;;4.22;3.25;;;21.30;15.10;;;;;;5043539;28;20455;-73
2023/04/22 10:26:32;;;;;;;4.80;3.83;;;21.30;15.60;;;;;;5051442;28;20870;-73
2023/04/22 10:28:58;;;;;;;5.70;3.60;;;21.50;14.90;;;;;;5044905;28;20771;-73
2023/04/22 10:31:24;;;;;;;4.95;3.10;;;21.50;15.20;;;;;;5052245;28;20443;-73
2023/04/22 10:34:07;;;;;;;4.72;3.53;;;21.40;15.00;;;;;;5034396;28;20758;-73
2023/04/22 10:36:32;;;;;;;6.18;4.00;;;21.40;15.00;;;;;;5053712;28;20421;-74
2023/04/22 10:38:58;;;;;;;5.60;3.50;;;21.50;15.30;;;;;;5054775;28;20464;-73
2023/04/22 10:41:34;;;;;;;6.45;3.63;;;21.50;15.30;;;;;;5054147;28;20397;-73
2023/04/22 10:44:09;;;;;;;6.38;3.30;;;21.50;15.20;;;;;;5050957;28;20396;-74
2023/04/22 10:46:38;;;;;;;5.20;3.28;;;21.50;14.90;;;;;;5038305;28;20397;-74
2023/04/22 10:49:16;;;;;;;4.90;2.90;;;21.70;14.60;;;;;;5025677;28;20406;-74
2023/04/22 10:51:44;;;;;;;9.63;3.97;;;21.70;14.60;;;;;;5038505;28;20402;-75
2023/04/22 10:54:25;;;;;;;5.55;4.25;;;21.60;14.60;;;;;;5042835;28;20387;-74
2023/04/22 10:57:10;;;;;;;9.88;3.60;;;21.70;14.50;;;;;;5049103;28;20805;-73
2023/04/22 10:59:57;;;;;;;4.80;3.10;;;21.60;14.40;;;;;;5050564;28;20463;-71
2023/04/22 11:02:23;;;;;;;4.30;3.30;;;21.60;14.80;;;;;;5034136;28;20393;-73
2023/04/22 11:04:49;;;;;;;5.90;3.50;;;21.70;14.70;;;;;;5038013;28;20879;-74
2023/04/22 11:07:29;;;;;;;4.70;2.93;;;21.80;14.40;;;;;;5033028;28;20387;-73
2023/04/22 11:09:59;;;;;;;4.70;3.20;;;21.80;14.10;;;;;;5038776;28;20480;-73
2023/04/22 11:12:34;;;;;;;4.67;3.23;;;21.90;14.10;;;;;;5072357;28;20419;-75
2023/04/22 11:15:06;;;;;;;6.25;3.70;;;22.10;13.70;;;;;;5074094;28;20379;-73
2023/04/22 11:17:33;;;;;;;6.45;3.28;;;22.30;13.30;;;;;;5074513;28;20384;-72
2023/04/22 11:19:58;;;;;;;6.40;3.70;;;22.30;12.80;;;;;;5074803;28;20472;-72
2023/04/22 11:22:24;;;;;;;6.80;3.70;;;22.20;13.30;;;;;;5072075;28;21093;-71
2023/04/22 11:24:57;;;;;;;5.27;3.37;;;22.20;13.30;;;;;;5071742;28;20746;-72
2023/04/22 11:27:29;;;;;;;5.07;3.63;;;22.40;13.20;;;;;;5072123;28;20923;-73
2023/04/22 11:30:09;;;;;;;5.80;3.20;;;22.50;13.30;;;;;;5072320;28;20387;-72
2023/04/22 11:32:37;;;;;;;7.32;3.40;;;22.50;12.80;;;;;;5071579;28;20388;-72
2023/04/22 11:35:05;;;;;;;5.28;3.28;;;22.50;13.10;;;;;;5071713;28;20387;-72
2023/04/22 11:37:38;;;;;;;5.72;3.47;;;22.60;12.90;;;;;;5072084;28;20387;-71
2023/04/22 11:40:04;;;;;;;5.65;3.58;;;22.70;13.10;;;;;;5071986;28;20744;-72
2023/04/22 11:42:29;;;;;;;4.43;3.45;;;22.70;13.00;;;;;;5071118;28;20467;-71
2023/04/22 11:44:55;;;;;;;6.60;3.40;;;22.90;12.80;;;;;;5071948;28;20463;-73
2023/04/22 11:47:20;;;;;;;5.40;3.47;;;23.10;12.50;;;;;;5071819;28;20409;-71
2023/04/22 11:50:03;;;;;;;5.05;3.28;;;23.30;12.00;;;;;;5073784;28;20382;-73
2023/04/22 11:52:44;;;;;;;4.47;3.28;;;23.30;11.90;;;;;;5071093;28;20380;-71
2023/04/22 11:55:10;;;;;;;5.38;3.70;;;23.40;12.20;;;;;;5071805;28;20435;-70
2023/04/22 11:57:36;;;;;;;5.70;3.45;;;23.70;11.50;;;;;;5054172;28;20392;-72
2023/04/22 12:00:02;;;;;;;6.73;4.10;;;23.70;11.10;;;;;;5073280;28;20471;-71
2023/04/22 12:02:27;;;;;;;4.00;3.33;;;23.40;11.90;;;;;;5071411;28;20403;-73
2023/04/22 12:04:58;;;;;;;5.40;3.47;;;23.70;11.30;;;;;;5071642;28;20793;-71
2023/04/22 12:07:26;;;;;;;8.40;3.30;;;23.80;11.10;;;;;;5054359;28;20394;-74
2023/04/22 12:09:55;;;;;;;5.60;3.47;;;23.90;10.80;;;;;;5072410;28;20380;-73
2023/04/22 12:12:27;;;;;;;6.90;3.30;;;24.30;10.60;;;;;;5053613;28;20422;-72
2023/04/22 12:14:52;;;;;;;6.65;4.03;;;24.40;10.50;;;;;;5071903;28;20391;-73
2023/04/22 12:17:24;;;;;;;6.00;3.47;;;24.60;10.20;;;;;;5073172;28;20449;-74
2023/04/22 12:19:54;;;;;;;4.82;3.70;;;24.60;10.10;;;;;;5074247;28;20761;-73
2023/04/22 12:22:25;;;;;;;6.40;3.60;;;24.70;10.30;;;;;;5078474;28;20379;-71
2023/04/22 12:24:50;;;;;;;7.95;3.72;;;24.80;9.70;;;;;;5081778;28;20376;-72
2023/04/22 12:27:16;;;;;;;8.40;4.00;;;24.80;9.70;;;;;;5077257;28;20397;-72
2023/04/22 12:29:53;;;;;;;7.13;3.50;;;24.80;9.90;;;;;;5074506;28;20402;-73
2023/04/22 12:32:20;;;;;;;9.13;4.05;;;24.80;9.80;;;;;;5074176;28;20470;-71
2023/04/22 12:34:46;;;;;;;7.63;3.80;;;24.80;10.20;;;;;;5075924;28;20379;-72
2023/04/22 12:37:12;;;;;;;6.07;3.50;;;24.70;10.10;;;;;;5075465;28;20721;-74
2023/04/22 12:39:38;;;;;;;6.05;3.40;;;24.60;10.10;;;;;;5075638;28;20408;-72
2023/04/22 12:42:05;;;;;;;5.68;3.97;;;24.40;10.60;;;;;;5072420;28;20433;-74
2023/04/22 12:44:31;;;;;;;4.53;3.05;;;24.50;10.70;;;;;;5071678;28;20390;-71
2023/04/22 12:46:56;;;;;;;9.70;4.00;;;24.70;10.50;;;;;;5071391;28;20789;-73